createdAt,value
2018-01-28T05:00:33.675Z,1020.21
2018-01-28T05:00:59.121Z,1020.17
2018-01-28T05:01:24.605Z,1020.18
2018-01-28T05:01:50.092Z,1020.17
2018-01-28T05:02:15.593Z,1020.17
2018-01-28T05:02:41.076Z,1020.13
2018-01-28T05:03:06.542Z,1020.2
2018-01-28T05:03:32.030Z,1020.16
2018-01-28T05:03:57.515Z,1020.15
2018-01-28T05:04:23.023Z,1020.2
2018-01-28T05:04:48.505Z,1020.17
2018-01-28T05:05:14.005Z,1020.11
2018-01-28T05:05:39.475Z,1020.06
2018-01-28T05:06:04.960Z,1020.09
2018-01-28T05:06:30.471Z,1020.05
2018-01-28T05:06:56.006Z,1020.06
2018-01-28T05:08:14.974Z,1020.09
2018-01-28T05:08:40.444Z,1020.09
2018-01-28T05:09:05.937Z,1020.08
2018-01-28T05:09:31.511Z,1020.11
2018-01-28T05:09:56.964Z,1020.14
2018-01-28T05:10:22.437Z,1020.21
2018-01-28T05:10:47.992Z,1020.09
2018-01-28T05:11:13.421Z,1020.18
2018-01-28T05:11:38.902Z,1020.19
2018-01-28T05:12:04.388Z,1020.21
2018-01-28T05:12:29.925Z,1020.26
2018-01-28T05:12:55.318Z,1020.2
2018-01-28T05:13:20.846Z,1020.28
2018-01-28T05:13:46.392Z,1020.25
2018-01-28T05:14:11.819Z,1020.3
2018-01-28T05:14:37.254Z,1020.27
2018-01-28T05:15:51.628Z,1020.29
2018-01-28T05:16:20.028Z,1020.27
2018-01-28T05:16:45.544Z,1020.29
2018-01-28T05:17:11.024Z,1020.2
2018-01-28T05:17:36.495Z,1020.22
2018-01-28T05:18:01.987Z,1020.21
2018-01-28T05:18:27.490Z,1020.24
2018-01-28T05:18:52.977Z,1020.24
2018-01-28T05:19:18.479Z,1020.19
2018-01-28T05:19:43.971Z,1020.12
2018-01-28T05:20:09.411Z,1020.22
2018-01-28T05:20:34.988Z,1020.22
2018-01-28T05:21:00.517Z,1020.22
2018-01-28T05:21:26.017Z,1020.18
2018-01-28T05:21:51.476Z,1020.2
2018-01-28T05:22:17.000Z,1020.19
2018-01-28T05:22:42.496Z,1020.18
2018-01-28T05:23:07.942Z,1020.21
2018-01-28T05:23:33.428Z,1020.21
2018-01-28T05:23:58.932Z,1020.25
2018-01-28T05:24:24.334Z,1020.3
2018-01-28T05:24:49.987Z,1020.27
2018-01-28T05:25:15.355Z,1020.25
2018-01-28T05:25:40.841Z,1020.28
2018-01-28T05:26:06.310Z,1020.23
2018-01-28T05:26:31.788Z,1020.33
2018-01-28T05:26:57.275Z,1020.24
2018-01-28T05:27:22.725Z,1020.26
2018-01-28T05:27:48.249Z,1020.24
2018-01-28T05:28:13.730Z,1020.27
2018-01-28T05:28:39.184Z,1020.26
2018-01-28T05:29:04.659Z,1020.22
2018-01-28T05:29:30.243Z,1020.25
2018-01-28T05:29:55.732Z,1020.13
2018-01-28T05:30:21.210Z,1020.17
2018-01-28T05:30:46.694Z,1020.21
2018-01-28T05:31:12.161Z,1020.14
2018-01-28T05:31:37.641Z,1020.16
2018-01-28T05:32:03.127Z,1020.21
2018-01-28T05:32:28.610Z,1020.22
2018-01-28T05:32:54.066Z,1020.17
2018-01-28T05:33:19.560Z,1020.27
2018-01-28T05:33:45.020Z,1020.19
2018-01-28T05:34:10.478Z,1020.23
2018-01-28T05:34:35.988Z,1020.16
2018-01-28T05:35:54.875Z,1020.14
2018-01-28T05:36:20.488Z,1020.15
2018-01-28T05:36:45.972Z,1020.11
2018-01-28T05:37:11.482Z,1020.1
2018-01-28T05:37:36.940Z,1020.1
2018-01-28T05:38:02.425Z,1020.04
2018-01-28T05:38:27.924Z,1020.01
2018-01-28T05:38:53.433Z,1019.99
2018-01-28T05:40:07.232Z,1019.92
2018-01-28T05:40:32.684Z,1019.99
2018-01-28T05:41:46.493Z,1019.97
2018-01-28T05:42:11.977Z,1020.01
2018-01-28T05:42:37.465Z,1020.08
2018-01-28T05:43:02.956Z,1020.07
2018-01-28T05:43:28.467Z,1020.16
2018-01-28T05:43:53.950Z,1020.16
2018-01-28T05:44:19.431Z,1020.17
2018-01-28T05:44:44.891Z,1020.2
2018-01-28T05:45:10.418Z,1020.2
2018-01-28T05:46:18.598Z,1020.27
2018-01-28T05:46:44.096Z,1020.27
2018-01-28T05:47:09.570Z,1020.24
2018-01-28T05:47:35.085Z,1020.2
2018-01-28T05:48:00.536Z,1020.24
2018-01-28T05:49:19.472Z,1020.26
2018-01-28T05:49:44.963Z,1020.29
2018-01-28T05:50:10.467Z,1020.28
2018-01-28T05:50:35.939Z,1020.27
2018-01-28T05:51:01.437Z,1020.36
2018-01-28T05:51:26.893Z,1020.41
2018-01-28T05:51:52.357Z,1020.38
2018-01-28T05:52:17.824Z,1020.4
2018-01-28T05:52:43.281Z,1020.43
2018-01-28T05:53:08.791Z,1020.45
2018-01-28T05:53:34.273Z,1020.48
2018-01-28T05:53:59.816Z,1020.54
2018-01-28T05:54:25.269Z,1020.59
2018-01-28T05:54:50.753Z,1020.63
2018-01-28T05:55:16.235Z,1020.65
2018-01-28T05:55:41.694Z,1020.63
2018-01-28T05:56:07.185Z,1020.68
2018-01-28T05:56:32.634Z,1020.67
2018-01-28T05:56:58.159Z,1020.62
2018-01-28T05:57:23.664Z,1020.62
2018-01-28T05:57:49.120Z,1020.7
2018-01-28T05:58:14.609Z,1020.65
2018-01-28T05:58:40.150Z,1020.64
2018-01-28T05:59:05.594Z,1020.64
2018-01-28T05:59:31.074Z,1020.64
2018-01-28T06:00:50.009Z,1020.63
2018-01-28T06:02:08.962Z,1020.78
2018-01-28T06:02:34.444Z,1020.77
2018-01-28T06:02:59.967Z,1020.68
2018-01-28T06:03:25.457Z,1020.71
2018-01-28T06:03:50.919Z,1020.7
2018-01-28T06:04:16.399Z,1020.75
2018-01-28T06:04:41.903Z,1020.75
2018-01-28T06:05:07.409Z,1020.8
2018-01-28T06:05:32.929Z,1020.77
2018-01-28T06:05:58.417Z,1020.75
2018-01-28T06:06:23.944Z,1020.8
2018-01-28T06:06:49.403Z,1020.78
2018-01-28T06:07:14.904Z,1020.82
2018-01-28T06:07:40.411Z,1020.79
2018-01-28T06:08:05.858Z,1020.8
2018-01-28T06:08:31.324Z,1020.77
2018-01-28T06:08:56.795Z,1020.77
2018-01-28T06:09:22.291Z,1020.78
2018-01-28T06:09:47.790Z,1020.75
2018-01-28T06:10:13.281Z,1020.8
2018-01-28T06:10:38.836Z,1020.87
2018-01-28T06:11:04.292Z,1020.85
2018-01-28T06:11:29.763Z,1020.91
2018-01-28T06:11:55.222Z,1020.97
2018-01-28T06:12:20.715Z,1020.94
2018-01-28T06:13:34.478Z,1020.97
2018-01-28T06:13:59.964Z,1020.99
2018-01-28T06:14:25.453Z,1020.97
2018-01-28T06:14:50.971Z,1020.94
2018-01-28T06:15:16.443Z,1020.98
2018-01-28T06:15:41.916Z,1020.97
2018-01-28T06:16:07.449Z,1021.07
2018-01-28T06:16:32.927Z,1021.05
2018-01-28T06:16:58.437Z,1021.04
2018-01-28T06:17:23.903Z,1021.08
2018-01-28T06:17:49.414Z,1021.07
2018-01-28T06:18:14.900Z,1021
2018-01-28T06:18:40.384Z,1020.99
2018-01-28T06:19:05.877Z,1020.93
2018-01-28T06:19:31.423Z,1020.98
2018-01-28T06:19:56.861Z,1020.99
2018-01-28T06:20:22.366Z,1020.97
2018-01-28T06:20:47.864Z,1020.92
2018-01-28T06:21:13.360Z,1020.96
2018-01-28T06:21:38.858Z,1020.94
2018-01-28T06:22:04.331Z,1020.93
2018-01-28T06:22:29.808Z,1020.92
2018-01-28T06:22:55.312Z,1020.85
2018-01-28T06:23:20.801Z,1020.89
2018-01-28T06:23:46.254Z,1020.88
2018-01-28T06:24:11.744Z,1020.87
2018-01-28T06:24:37.218Z,1020.93
2018-01-28T06:25:02.711Z,1020.86
2018-01-28T06:25:28.211Z,1020.94
2018-01-28T06:25:53.676Z,1020.97
2018-01-28T06:26:19.195Z,1020.91
2018-01-28T06:26:44.763Z,1020.92
2018-01-28T06:27:10.234Z,1020.91
2018-01-28T06:27:35.817Z,1020.85
2018-01-28T06:28:01.287Z,1020.95
2018-01-28T06:28:26.806Z,1020.93
2018-01-28T06:28:52.275Z,1021.01
2018-01-28T06:29:17.785Z,1020.93
2018-01-28T06:29:43.278Z,1020.92
2018-01-28T06:30:56.569Z,1020.88
2018-01-28T06:31:22.048Z,1020.88
2018-01-28T06:31:47.565Z,1020.86
2018-01-28T06:32:13.036Z,1020.89
2018-01-28T06:32:38.565Z,1020.87
2018-01-28T06:33:04.041Z,1020.91
2018-01-28T06:33:29.547Z,1020.88
2018-01-28T06:34:48.408Z,1020.91
2018-01-28T06:35:13.898Z,1020.87
2018-01-28T06:35:39.404Z,1020.96
2018-01-28T06:36:04.916Z,1020.92
2018-01-28T06:36:30.397Z,1020.89
2018-01-28T06:36:55.890Z,1020.94
2018-01-28T06:37:21.412Z,1020.97
2018-01-28T06:38:35.199Z,1021.01
2018-01-28T06:39:00.674Z,1020.9
2018-01-28T06:39:26.168Z,1021.01
2018-01-28T06:39:51.640Z,1021.01
2018-01-28T06:40:55.272Z,1021.07
2018-01-28T06:41:20.770Z,1021.06
2018-01-28T06:41:46.258Z,1021.05
2018-01-28T06:42:11.783Z,1021.05
2018-01-28T06:42:37.284Z,1021.12
2018-01-28T06:43:02.811Z,1021.09
2018-01-28T06:43:28.276Z,1021.01
2018-01-28T06:43:53.817Z,1021
2018-01-28T06:44:19.412Z,1020.97
2018-01-28T06:44:44.901Z,1020.9
2018-01-28T06:45:10.402Z,1020.9
2018-01-28T06:45:35.875Z,1020.89
2018-01-28T06:46:01.362Z,1020.86
2018-01-28T06:46:26.835Z,1020.87
2018-01-28T06:46:52.326Z,1020.84
2018-01-28T06:47:17.822Z,1020.95
2018-01-28T06:48:16.467Z,1020.9
2018-01-28T06:48:41.864Z,1020.88
2018-01-28T06:49:07.379Z,1020.93
2018-01-28T06:49:32.837Z,1020.95
2018-01-28T06:49:58.320Z,1020.95
2018-01-28T06:50:23.889Z,1020.95
2018-01-28T06:50:49.351Z,1020.94
2018-01-28T06:51:14.824Z,1020.86
2018-01-28T06:51:40.450Z,1020.92
2018-01-28T06:52:59.369Z,1020.9
2018-01-28T06:53:24.869Z,1020.92
2018-01-28T06:53:50.393Z,1020.93
2018-01-28T06:54:15.864Z,1020.97
2018-01-28T06:54:41.367Z,1020.97
2018-01-28T06:55:06.846Z,1021
2018-01-28T06:55:32.345Z,1021.05
2018-01-28T06:55:57.822Z,1021.03
2018-01-28T06:56:23.369Z,1021.08
2018-01-28T06:56:48.882Z,1021.04
2018-01-28T06:57:14.364Z,1021.08
2018-01-28T06:57:39.867Z,1021.09
2018-01-28T06:58:05.352Z,1021.17
2018-01-28T06:58:30.831Z,1021.1
2018-01-28T06:58:56.334Z,1021.08
2018-01-28T06:59:21.885Z,1021.12
2018-01-28T06:59:47.354Z,1021.15
2018-01-28T07:00:45.920Z,1021.23
2018-01-28T07:01:11.406Z,1021.22
2018-01-28T07:01:36.947Z,1021.25
2018-01-28T07:02:02.385Z,1021.23
2018-01-28T07:02:27.857Z,1021.19
2018-01-28T07:02:53.363Z,1021.2
2018-01-28T07:03:18.881Z,1021.23
2018-01-28T07:03:44.382Z,1021.21
2018-01-28T07:04:09.875Z,1021.16
2018-01-28T07:04:35.372Z,1021.16
2018-01-28T07:05:00.884Z,1021.19
2018-01-28T07:05:26.405Z,1021.27
2018-01-28T07:05:51.917Z,1021.26
2018-01-28T07:06:17.434Z,1021.16
2018-01-28T07:06:42.988Z,1021.22
2018-01-28T07:07:08.468Z,1021.21
2018-01-28T07:07:33.921Z,1021.24
2018-01-28T07:07:59.513Z,1021.27
2018-01-28T07:08:25.102Z,1021.27
2018-01-28T07:09:38.883Z,1021.36
2018-01-28T07:10:04.378Z,1021.35
2018-01-28T07:10:29.881Z,1021.38
2018-01-28T07:10:55.391Z,1021.42
2018-01-28T07:11:20.870Z,1021.36
2018-01-28T07:11:46.392Z,1021.36
2018-01-28T07:13:00.168Z,1021.33
2018-01-28T07:13:25.657Z,1021.34
2018-01-28T07:13:51.142Z,1021.36
2018-01-28T07:14:16.612Z,1021.35
2018-01-28T07:15:15.222Z,1021.36
2018-01-28T07:15:40.735Z,1021.33
2018-01-28T07:16:06.214Z,1021.37
2018-01-28T07:16:31.699Z,1021.26
2018-01-28T07:17:40.423Z,1021.32
2018-01-28T07:18:05.915Z,1021.33
2018-01-28T07:18:31.416Z,1021.28
2018-01-28T07:18:56.892Z,1021.27
2018-01-28T07:19:22.362Z,1021.3
2018-01-28T07:19:47.863Z,1021.32
2018-01-28T07:20:13.363Z,1021.35
2018-01-28T07:20:38.844Z,1021.3
2018-01-28T07:21:04.318Z,1021.29
2018-01-28T07:21:29.804Z,1021.33
2018-01-28T07:21:55.300Z,1021.37
2018-01-28T07:22:20.802Z,1021.37
2018-01-28T07:22:46.269Z,1021.4
2018-01-28T07:23:11.807Z,1021.46
2018-01-28T07:23:37.300Z,1021.4
2018-01-28T07:24:02.844Z,1021.34
2018-01-28T07:24:28.325Z,1021.42
2018-01-28T07:24:53.798Z,1021.41
2018-01-28T07:25:19.357Z,1021.47
2018-01-28T07:25:44.874Z,1021.46
2018-01-28T07:26:10.381Z,1021.5
2018-01-28T07:26:35.853Z,1021.48
2018-01-28T07:27:01.359Z,1021.46
2018-01-28T07:27:26.968Z,1021.55
2018-01-28T07:27:52.717Z,1021.58
2018-01-28T07:28:18.229Z,1021.54
2018-01-28T07:28:43.913Z,1021.61
2018-01-28T07:29:09.468Z,1021.59
2018-01-28T07:29:35.143Z,1021.55
2018-01-28T07:30:00.680Z,1021.62
2018-01-28T07:30:26.166Z,1021.52
2018-01-28T07:30:51.835Z,1021.62
2018-01-28T07:31:17.311Z,1021.63
2018-01-28T07:31:42.838Z,1021.65
2018-01-28T07:32:09.213Z,1021.62
2018-01-28T07:32:34.979Z,1021.67
2018-01-28T07:33:00.449Z,1021.68
2018-01-28T07:33:25.909Z,1021.7
2018-01-28T07:33:51.378Z,1021.68
2018-01-28T07:34:16.866Z,1021.62
2018-01-28T07:35:30.663Z,1021.68
2018-01-28T07:35:56.132Z,1021.7
2018-01-28T07:36:21.642Z,1021.67
2018-01-28T07:36:47.113Z,1021.72
2018-01-28T07:37:12.652Z,1021.72
2018-01-28T07:37:38.105Z,1021.68
2018-01-28T07:38:03.593Z,1021.74
2018-01-28T07:38:29.202Z,1021.7
2018-01-28T07:38:54.678Z,1021.75
2018-01-28T07:39:20.222Z,1021.85
2018-01-28T07:39:45.702Z,1021.77
2018-01-28T07:40:11.248Z,1021.76
2018-01-28T07:40:36.657Z,1021.78
2018-01-28T07:41:02.135Z,1021.74
2018-01-28T07:41:27.665Z,1021.71
2018-01-28T07:41:53.209Z,1021.77
2018-01-28T07:42:18.695Z,1021.74
2018-01-28T07:42:44.337Z,1021.73
2018-01-28T07:43:09.843Z,1021.77
2018-01-28T07:43:35.360Z,1021.74
2018-01-28T07:44:00.853Z,1021.75
2018-01-28T07:44:26.358Z,1021.71
2018-01-28T07:44:51.881Z,1021.69
2018-01-28T07:45:17.530Z,1021.64
2018-01-28T07:45:43.033Z,1021.62
2018-01-28T07:46:08.912Z,1021.69
2018-01-28T07:46:34.405Z,1021.62
2018-01-28T07:46:59.871Z,1021.69
2018-01-28T07:47:25.391Z,1021.64
2018-01-28T07:47:50.902Z,1021.66
2018-01-28T07:49:09.942Z,1021.7
2018-01-28T07:49:35.435Z,1021.7
2018-01-28T07:50:00.943Z,1021.72
2018-01-28T07:50:26.436Z,1021.74
2018-01-28T07:50:51.917Z,1021.79
2018-01-28T07:51:17.443Z,1021.8
2018-01-28T07:51:42.906Z,1021.79
2018-01-28T07:52:51.621Z,1021.72
2018-01-28T07:53:17.121Z,1021.75
2018-01-28T07:53:42.621Z,1021.73
2018-01-28T07:54:08.153Z,1021.69
2018-01-28T07:54:33.639Z,1021.77
2018-01-28T07:54:59.109Z,1021.77
2018-01-28T07:55:24.606Z,1021.71
2018-01-28T07:55:50.099Z,1021.74
2018-01-28T07:56:15.719Z,1021.81
2018-01-28T07:56:41.216Z,1021.78
2018-01-28T07:57:06.755Z,1021.74
2018-01-28T07:57:32.196Z,1021.76
2018-01-28T07:57:57.745Z,1021.78
2018-01-28T07:58:23.222Z,1021.75
2018-01-28T07:58:48.701Z,1021.79
2018-01-28T07:59:14.244Z,1021.79
2018-01-28T07:59:39.770Z,1021.79
2018-01-28T08:00:05.319Z,1021.75
2018-01-28T08:00:30.768Z,1021.81
2018-01-28T08:00:56.299Z,1021.81
2018-01-28T08:01:21.788Z,1021.82
2018-01-28T08:01:47.289Z,1021.79
2018-01-28T08:02:12.742Z,1021.77
2018-01-28T08:02:38.198Z,1021.73
2018-01-28T08:03:03.713Z,1021.76
2018-01-28T08:03:29.211Z,1021.73
2018-01-28T08:03:54.732Z,1021.78
2018-01-28T08:04:20.216Z,1021.73
2018-01-28T08:04:45.682Z,1021.72
2018-01-28T08:05:11.174Z,1021.74
2018-01-28T08:05:36.710Z,1021.77
2018-01-28T08:06:02.240Z,1021.74
2018-01-28T08:06:27.732Z,1021.73
2018-01-28T08:06:53.222Z,1021.73
2018-01-28T08:07:57.164Z,1021.71
2018-01-28T08:08:22.664Z,1021.73
2018-01-28T08:08:48.137Z,1021.72
2018-01-28T08:09:13.665Z,1021.76
2018-01-28T08:09:39.177Z,1021.71
2018-01-28T08:10:04.686Z,1021.73
2018-01-28T08:10:30.237Z,1021.71
2018-01-28T08:10:55.751Z,1021.69
2018-01-28T08:11:21.222Z,1021.72
2018-01-28T08:11:46.752Z,1021.7
2018-01-28T08:12:12.211Z,1021.68
2018-01-28T08:12:37.734Z,1021.62
2018-01-28T08:13:03.207Z,1021.64
2018-01-28T08:13:28.682Z,1021.59
2018-01-28T08:13:54.223Z,1021.57
2018-01-28T08:14:19.682Z,1021.6
2018-01-28T08:14:45.206Z,1021.62
2018-01-28T08:15:10.691Z,1021.59
2018-01-28T08:15:36.184Z,1021.59
2018-01-28T08:16:01.859Z,1021.57
2018-01-28T08:16:27.262Z,1021.56
2018-01-28T08:16:52.775Z,1021.58
2018-01-28T08:17:18.296Z,1021.58
2018-01-28T08:17:43.795Z,1021.6
2018-01-28T08:18:09.343Z,1021.58
2018-01-28T08:18:34.833Z,1021.62
2018-01-28T08:19:00.330Z,1021.54
2018-01-28T08:19:25.817Z,1021.56
2018-01-28T08:19:51.299Z,1021.56
2018-01-28T08:20:16.782Z,1021.57
2018-01-28T08:20:42.294Z,1021.57
2018-01-28T08:21:07.776Z,1021.56
2018-01-28T08:21:33.271Z,1021.63
2018-01-28T08:21:58.803Z,1021.59
2018-01-28T08:22:24.296Z,1021.6
2018-01-28T08:22:49.793Z,1021.63
2018-01-28T08:23:15.252Z,1021.63
2018-01-28T08:23:40.747Z,1021.59
2018-01-28T08:24:06.202Z,1021.64
2018-01-28T08:24:31.670Z,1021.62
2018-01-28T08:24:57.136Z,1021.61
2018-01-28T08:25:22.598Z,1021.62
2018-01-28T08:25:48.131Z,1021.62
2018-01-28T08:26:13.612Z,1021.62
2018-01-28T08:26:39.127Z,1021.58
2018-01-28T08:27:04.630Z,1021.61
2018-01-28T08:27:30.172Z,1021.62
2018-01-28T08:27:55.664Z,1021.58
2018-01-28T08:28:21.119Z,1021.66
2018-01-28T08:28:46.639Z,1021.63
2018-01-28T08:29:12.170Z,1021.61
2018-01-28T08:29:37.665Z,1021.64
2018-01-28T08:30:03.119Z,1021.64
2018-01-28T08:30:28.592Z,1021.66
2018-01-28T08:30:54.127Z,1021.64
2018-01-28T08:31:19.686Z,1021.65
2018-01-28T08:31:45.174Z,1021.66
2018-01-28T08:32:10.689Z,1021.72
2018-01-28T08:32:36.142Z,1021.73
2018-01-28T08:33:01.693Z,1021.76
2018-01-28T08:33:27.158Z,1021.73
2018-01-28T08:33:52.678Z,1021.74
2018-01-28T08:34:18.169Z,1021.74
2018-01-28T08:34:43.660Z,1021.8
2018-01-28T08:35:09.134Z,1021.78
2018-01-28T08:35:34.632Z,1021.79
2018-01-28T08:36:00.124Z,1021.77
2018-01-28T08:36:25.595Z,1021.78
2018-01-28T08:36:51.084Z,1021.79
2018-01-28T08:37:16.632Z,1021.74
2018-01-28T08:37:42.212Z,1021.79
2018-01-28T08:38:07.695Z,1021.79
2018-01-28T08:38:33.184Z,1021.8
2018-01-28T08:39:46.960Z,1021.72
2018-01-28T08:40:12.456Z,1021.73
2018-01-28T08:40:37.943Z,1021.75
2018-01-28T08:41:03.427Z,1021.71
2018-01-28T08:41:28.904Z,1021.71
2018-01-28T08:42:47.852Z,1021.67
2018-01-28T08:43:13.328Z,1021.67
2018-01-28T08:43:38.854Z,1021.68
2018-01-28T08:44:04.369Z,1021.66
2018-01-28T08:44:29.854Z,1021.68
2018-01-28T08:44:55.350Z,1021.63
2018-01-28T08:45:20.867Z,1021.66
2018-01-28T08:45:46.327Z,1021.7
2018-01-28T08:46:11.828Z,1021.77
2018-01-28T08:46:37.328Z,1021.73
2018-01-28T08:47:02.797Z,1021.82
2018-01-28T08:47:28.261Z,1021.8
2018-01-28T08:48:36.971Z,1021.8
2018-01-28T08:49:02.473Z,1021.8
2018-01-28T08:49:27.956Z,1021.83
2018-01-28T08:49:53.402Z,1021.83
2018-01-28T08:50:18.877Z,1021.88
2018-01-28T08:50:44.375Z,1021.84
2018-01-28T08:52:03.323Z,1021.84
2018-01-28T08:52:28.809Z,1021.86
2018-01-28T08:52:54.308Z,1021.8
2018-01-28T08:53:19.812Z,1021.79
2018-01-28T08:53:45.315Z,1021.82
2018-01-28T08:54:10.878Z,1021.87
2018-01-28T08:54:36.424Z,1021.86
2018-01-28T08:55:01.914Z,1021.88
2018-01-28T08:56:10.621Z,1021.9
2018-01-28T08:56:36.124Z,1021.93
2018-01-28T08:57:01.602Z,1021.91
2018-01-28T08:57:27.099Z,1021.89
2018-01-28T08:57:52.576Z,1021.93
2018-01-28T08:58:18.066Z,1021.88
2018-01-28T08:58:46.658Z,1021.86
2018-01-28T08:59:59.561Z,1021.88
2018-01-28T09:00:27.050Z,1021.9
2018-01-28T09:00:56.059Z,1021.89
2018-01-28T09:01:22.596Z,1021.89
2018-01-28T09:01:47.596Z,1021.85
2018-01-28T09:02:13.086Z,1021.89
2018-01-28T09:02:38.555Z,1021.92
2018-01-28T09:03:04.108Z,1021.9
2018-01-28T09:03:29.517Z,1021.88
2018-01-28T09:03:55.320Z,1021.93
2018-01-28T09:04:21.237Z,1021.85
2018-01-28T09:04:47.271Z,1021.86
2018-01-28T09:05:12.953Z,1021.83
2018-01-28T09:05:38.335Z,1021.84
2018-01-28T09:06:03.732Z,1021.88
2018-01-28T09:07:14.006Z,1021.89
2018-01-28T09:07:40.109Z,1021.87
2018-01-28T09:08:06.661Z,1021.86
2018-01-28T09:08:31.900Z,1021.89
2018-01-28T09:08:57.597Z,1021.86
2018-01-28T09:09:23.090Z,1021.87
2018-01-28T09:09:48.704Z,1021.83
2018-01-28T09:10:14.698Z,1021.88
2018-01-28T09:10:40.306Z,1021.85
2018-01-28T09:11:06.648Z,1021.86
2018-01-28T09:11:31.465Z,1021.88
2018-01-28T09:11:56.900Z,1021.93
2018-01-28T09:12:22.493Z,1021.9
2018-01-28T09:12:47.992Z,1021.93
2018-01-28T09:13:13.434Z,1021.97
2018-01-28T09:13:38.887Z,1021.91
2018-01-28T09:14:04.319Z,1021.92
2018-01-28T09:14:29.958Z,1021.97
2018-01-28T09:14:55.986Z,1021.96
2018-01-28T09:15:21.679Z,1021.99
2018-01-28T09:15:47.368Z,1021.99
2018-01-28T09:16:14.810Z,1022.05
2018-01-28T09:16:40.226Z,1021.99
2018-01-28T09:17:05.736Z,1021.99
2018-01-28T09:17:31.490Z,1022.03
2018-01-28T09:17:57.078Z,1021.99
2018-01-28T09:18:22.499Z,1022.01
2018-01-28T09:18:47.970Z,1022.04
2018-01-28T09:19:13.787Z,1021.98
2018-01-28T09:19:39.049Z,1021.97
2018-01-28T09:20:04.590Z,1022.02
2018-01-28T09:20:30.086Z,1022.02
2018-01-28T09:20:55.502Z,1022.07
2018-01-28T09:21:20.938Z,1022.1
2018-01-28T09:21:46.423Z,1022.12
2018-01-28T09:22:11.874Z,1022.07
2018-01-28T09:22:37.728Z,1022.07
2018-01-28T09:23:03.199Z,1022.08
2018-01-28T09:23:28.759Z,1022.09
2018-01-28T09:23:54.293Z,1022.15
2018-01-28T09:24:19.786Z,1022.18
2018-01-28T09:24:45.505Z,1022.19
2018-01-28T09:25:11.123Z,1022.2
2018-01-28T09:25:36.630Z,1022.21
2018-01-28T09:26:11.062Z,1022.23
2018-01-28T09:26:36.722Z,1022.2
2018-01-28T09:27:02.561Z,1022.28
2018-01-28T09:27:28.135Z,1022.25
2018-01-28T09:27:53.600Z,1022.26
2018-01-28T09:28:22.818Z,1022.29
2018-01-28T09:28:48.342Z,1022.27
2018-01-28T09:29:13.799Z,1022.29
2018-01-28T09:29:39.302Z,1022.27
2018-01-28T09:30:04.826Z,1022.28
2018-01-28T09:30:30.335Z,1022.25
2018-01-28T09:30:55.820Z,1022.21
2018-01-28T09:31:21.322Z,1022.23
2018-01-28T09:31:46.912Z,1022.22
2018-01-28T09:32:12.366Z,1022.27
2018-01-28T09:32:37.888Z,1022.21
2018-01-28T09:33:03.391Z,1022.17
2018-01-28T09:33:28.992Z,1022.22
2018-01-28T09:33:54.489Z,1022.19
2018-01-28T09:34:19.999Z,1022.19
2018-01-28T09:34:45.501Z,1022.18
2018-01-28T09:35:11.005Z,1022.25
2018-01-28T09:35:36.548Z,1022.26
2018-01-28T09:36:02.014Z,1022.2
2018-01-28T09:36:27.492Z,1022.22
2018-01-28T09:36:53.048Z,1022.26
2018-01-28T09:37:18.489Z,1022.25
2018-01-28T09:37:43.969Z,1022.21
2018-01-28T09:38:09.490Z,1022.21
2018-01-28T09:38:34.965Z,1022.2
2018-01-28T09:39:00.459Z,1022.23
2018-01-28T09:39:25.947Z,1022.26
2018-01-28T09:39:51.425Z,1022.23
2018-01-28T09:40:16.941Z,1022.24
2018-01-28T09:41:30.833Z,1022.26
2018-01-28T09:41:56.304Z,1022.23
2018-01-28T09:42:21.800Z,1022.33
2018-01-28T09:42:47.313Z,1022.24
2018-01-28T09:43:12.868Z,1022.26
2018-01-28T09:43:38.379Z,1022.3
2018-01-28T09:44:03.881Z,1022.28
2018-01-28T09:44:29.401Z,1022.28
2018-01-28T09:44:54.883Z,1022.32
2018-01-28T09:45:58.497Z,1022.32
2018-01-28T09:46:23.980Z,1022.29
2018-01-28T09:46:49.479Z,1022.27
2018-01-28T09:47:14.973Z,1022.28
2018-01-28T09:47:40.472Z,1022.3
2018-01-28T09:48:05.968Z,1022.33
2018-01-28T09:48:31.468Z,1022.32
2018-01-28T09:48:56.974Z,1022.32
2018-01-28T09:49:22.452Z,1022.4
2018-01-28T09:49:47.960Z,1022.33
2018-01-28T09:50:13.433Z,1022.4
2018-01-28T09:50:38.930Z,1022.39
2018-01-28T09:51:04.430Z,1022.4
2018-01-28T09:51:29.928Z,1022.43
2018-01-28T09:51:55.453Z,1022.42
2018-01-28T09:52:20.934Z,1022.37
2018-01-28T09:52:46.446Z,1022.35
2018-01-28T09:53:11.999Z,1022.39
2018-01-28T09:53:37.452Z,1022.42
2018-01-28T09:54:02.914Z,1022.41
2018-01-28T09:54:28.419Z,1022.34
2018-01-28T09:54:53.865Z,1022.37
2018-01-28T09:55:19.400Z,1022.39
2018-01-28T09:55:44.891Z,1022.3
2018-01-28T09:56:10.361Z,1022.37
2018-01-28T09:56:35.877Z,1022.39
2018-01-28T09:57:01.387Z,1022.42
2018-01-28T09:57:26.918Z,1022.33
2018-01-28T09:58:40.736Z,1022.35
2018-01-28T09:59:06.205Z,1022.32
2018-01-28T09:59:31.723Z,1022.16
2018-01-28T09:59:57.217Z,1022.22
2018-01-28T10:00:22.715Z,1022.26
2018-01-28T10:00:48.230Z,1022.2
2018-01-28T10:01:13.727Z,1022.22
2018-01-28T10:01:39.217Z,1022.21
2018-01-28T10:02:04.766Z,1022.22
2018-01-28T10:02:30.205Z,1022.15
2018-01-28T10:02:55.680Z,1022.12
2018-01-28T10:03:21.171Z,1022.14
2018-01-28T10:03:46.732Z,1022.16
2018-01-28T10:04:12.336Z,1022.16
2018-01-28T10:04:37.784Z,1022.18
2018-01-28T10:05:03.235Z,1022.18
2018-01-28T10:05:28.819Z,1022.1
2018-01-28T10:05:54.375Z,1022.16
2018-01-28T10:06:19.854Z,1022.2
2018-01-28T10:06:45.389Z,1022.23
2018-01-28T10:07:10.943Z,1022.22
2018-01-28T10:07:36.547Z,1022.24
2018-01-28T10:08:01.976Z,1022.29
2018-01-28T10:08:27.513Z,1022.32
2018-01-28T10:08:52.970Z,1022.32
2018-01-28T10:09:18.480Z,1022.37
2018-01-28T10:09:43.955Z,1022.35
2018-01-28T10:10:09.479Z,1022.41
2018-01-28T10:10:35.110Z,1022.43
2018-01-28T10:11:00.542Z,1022.42
2018-01-28T10:11:26.058Z,1022.42
2018-01-28T10:11:51.572Z,1022.47
2018-01-28T10:12:17.067Z,1022.38
2018-01-28T10:12:42.630Z,1022.43
2018-01-28T10:13:08.126Z,1022.36
2018-01-28T10:13:33.647Z,1022.37
2018-01-28T10:13:59.197Z,1022.33
2018-01-28T10:14:24.700Z,1022.4
2018-01-28T10:14:50.233Z,1022.41
2018-01-28T10:15:15.850Z,1022.31
2018-01-28T10:15:41.299Z,1022.31
2018-01-28T10:16:06.801Z,1022.34
2018-01-28T10:16:32.336Z,1022.33
2018-01-28T10:16:57.769Z,1022.36
2018-01-28T10:17:23.289Z,1022.35
2018-01-28T10:17:48.753Z,1022.34
2018-01-28T10:18:57.488Z,1022.36
2018-01-28T10:19:22.937Z,1022.29
2018-01-28T10:19:48.452Z,1022.36
2018-01-28T10:20:13.965Z,1022.29
2018-01-28T10:21:32.942Z,1022.38
2018-01-28T10:21:58.438Z,1022.32
2018-01-28T10:22:23.928Z,1022.37
2018-01-28T10:22:49.357Z,1022.3
2018-01-28T10:23:14.846Z,1022.32
2018-01-28T10:23:40.334Z,1022.37
2018-01-28T10:24:05.844Z,1022.36
2018-01-28T10:24:31.372Z,1022.44
2018-01-28T10:24:56.863Z,1022.43
2018-01-28T10:25:22.351Z,1022.45
2018-01-28T10:25:47.848Z,1022.5
2018-01-28T10:26:13.378Z,1022.51
2018-01-28T10:26:38.868Z,1022.56
2018-01-28T10:27:04.370Z,1022.59
2018-01-28T10:27:29.891Z,1022.58
2018-01-28T10:27:55.443Z,1022.63
2018-01-28T10:28:20.955Z,1022.53
2018-01-28T10:28:46.495Z,1022.57
2018-01-28T10:29:12.056Z,1022.47
2018-01-28T10:29:37.568Z,1022.47
2018-01-28T10:30:03.064Z,1022.5
2018-01-28T10:30:28.582Z,1022.43
2018-01-28T10:30:54.148Z,1022.5
2018-01-28T10:31:19.665Z,1022.35
2018-01-28T10:31:45.162Z,1022.42
2018-01-28T10:32:10.635Z,1022.39
2018-01-28T10:32:36.119Z,1022.36
2018-01-28T10:33:01.586Z,1022.4
2018-01-28T10:33:27.107Z,1022.41
2018-01-28T10:33:52.560Z,1022.44
2018-01-28T10:34:18.072Z,1022.4
2018-01-28T10:34:43.613Z,1022.41
2018-01-28T10:35:09.145Z,1022.42
2018-01-28T10:35:34.618Z,1022.43
2018-01-28T10:36:00.140Z,1022.38
2018-01-28T10:36:25.631Z,1022.33
2018-01-28T10:36:51.151Z,1022.29
2018-01-28T10:37:16.617Z,1022.32
2018-01-28T10:37:42.095Z,1022.37
2018-01-28T10:38:07.575Z,1022.3
2018-01-28T10:38:33.038Z,1022.32
2018-01-28T10:38:58.534Z,1022.31
2018-01-28T10:39:24.024Z,1022.33